Time;durP1;ratioP1;P1;durP2;ratioP2;P2;SDS_P1;SDS_P2;PMS_P1;PMS_P2;Temp;Humidity;BMP_temperature;BMP_pressure;BME280_temperature;BME280_humidity;BME280_pressure;Samples;Min_cycle;Max_cycle;Signal;HPM_P1;HPM_P2
2021/04/10 00:01:27;;;;;;;10.00;5.00;;;6.50;42.50;;;;;;5054891;28;20190;-70
2021/04/10 00:03:54;;;;;;;4.78;3.60;;;6.40;42.50;;;;;;5074668;28;20194;-69
2021/04/10 00:06:21;;;;;;;6.25;3.95;;;6.40;42.90;;;;;;5056324;28;20238;-69
2021/04/10 00:08:47;;;;;;;7.50;3.58;;;6.40;42.70;;;;;;5054908;28;20194;-69
2021/04/10 00:11:15;;;;;;;4.15;3.55;;;6.40;42.80;;;;;;5070807;28;20186;-69
2021/04/10 00:13:41;;;;;;;7.40;3.35;;;6.30;43.00;;;;;;5074968;28;20662;-70
2021/04/10 00:16:08;;;;;;;8.52;3.38;;;6.30;43.30;;;;;;5059489;28;20535;-69
2021/04/10 00:18:35;;;;;;;5.95;3.72;;;6.20;43.00;;;;;;5054822;28;20205;-69
2021/04/10 00:21:02;;;;;;;5.95;3.55;;;6.10;43.20;;;;;;5068130;28;20186;-69
2021/04/10 00:23:28;;;;;;;5.75;4.32;;;6.10;44.20;;;;;;5074751;28;20202;-69
2021/04/10 00:25:55;;;;;;;5.20;4.28;;;6.10;44.30;;;;;;5062029;28;20714;-69
2021/04/10 00:28:23;;;;;;;4.90;3.95;;;6.00;44.20;;;;;;5054569;28;20251;-69
2021/04/10 00:30:50;;;;;;;6.40;4.00;;;5.90;43.80;;;;;;5064976;28;20551;-69
2021/04/10 00:33:16;;;;;;;6.03;4.20;;;5.70;44.20;;;;;;5074355;28;20695;-69
2021/04/10 00:35:43;;;;;;;5.72;3.05;;;5.60;43.80;;;;;;5061266;28;20190;-69
2021/04/10 00:38:09;;;;;;;6.50;3.95;;;5.50;44.10;;;;;;5054280;28;20197;-69
2021/04/10 00:40:36;;;;;;;5.80;3.40;;;5.50;45.10;;;;;;5064439;28;20197;-70
2021/04/10 00:43:03;;;;;;;8.70;4.63;;;5.40;45.60;;;;;;5074260;28;20194;-69
2021/04/10 00:45:30;;;;;;;5.03;3.42;;;5.40;45.70;;;;;;5063688;28;20186;-69
2021/04/10 00:47:57;;;;;;;7.32;4.22;;;5.40;45.50;;;;;;5053995;28;20198;-69
2021/04/10 00:50:24;;;;;;;5.18;2.47;;;5.30;45.80;;;;;;5061915;28;20186;-69
2021/04/10 00:52:51;;;;;;;6.93;3.60;;;5.30;45.70;;;;;;5073847;28;20228;-69
2021/04/10 00:55:17;;;;;;;5.93;3.97;;;5.30;46.10;;;;;;5065633;28;20189;-69
2021/04/10 00:57:44;;;;;;;10.02;4.70;;;5.30;46.30;;;;;;5053805;28;20190;-69
2021/04/10 01:00:12;;;;;;;6.75;4.15;;;5.30;47.10;;;;;;5059795;28;20641;-69
2021/04/10 01:02:42;;;;;;;7.63;5.28;;;5.40;46.90;;;;;;5073749;28;20190;-69
2021/04/10 01:05:10;;;;;;;12.13;5.70;;;5.40;46.80;;;;;;5071860;28;20259;-69
2021/04/10 01:07:36;;;;;;;12.30;6.40;;;5.40;47.40;;;;;;5073579;28;20235;-69
2021/04/10 01:10:06;;;;;;;7.53;3.53;;;5.40;47.00;;;;;;5067730;28;20189;-69
2021/04/10 01:12:47;;;;;;;5.45;3.13;;;5.40;47.30;;;;;;5053498;28;20210;-69
2021/04/10 01:15:22;;;;;;;4.00;2.85;;;5.30;47.00;;;;;;5059426;28;20181;-69
2021/04/10 01:17:54;;;;;;;5.22;3.25;;;5.20;47.30;;;;;;5073596;28;20224;-69
2021/04/10 01:20:46;;;;;;;4.65;2.72;;;5.20;47.60;;;;;;5065452;28;20705;-69
2021/04/10 01:23:46;;;;;;;4.72;2.75;;;5.10;47.80;;;;;;5053483;28;20555;-69
2021/04/10 01:26:32;;;;;;;4.35;3.03;;;5.00;47.70;;;;;;5054932;28;20296;-69
2021/04/10 01:29:03;;;;;;;6.28;3.05;;;5.00;47.60;;;;;;5073178;28;20671;-69
2021/04/10 01:31:37;;;;;;;7.32;3.33;;;5.00;48.20;;;;;;5056338;28;20248;-69
2021/04/10 01:34:08;;;;;;;4.25;2.55;;;5.10;48.00;;;;;;5064193;28;20297;-69
2021/04/10 01:36:38;;;;;;;4.32;2.90;;;5.10;47.90;;;;;;5073123;28;20190;-69
2021/04/10 01:39:08;;;;;;;6.30;3.13;;;5.10;47.70;;;;;;5061105;28;20187;-69
2021/04/10 01:41:36;;;;;;;4.70;2.63;;;5.10;47.60;;;;;;5069752;28;20547;-69
2021/04/10 01:44:05;;;;;;;4.45;2.70;;;5.20;48.00;;;;;;5062196;28;20182;-69
2021/04/10 01:46:33;;;;;;;6.40;3.10;;;5.20;48.20;;;;;;5053003;28;20280;-69
2021/04/10 01:49:01;;;;;;;5.13;3.20;;;5.30;48.10;;;;;;5061978;28;20243;-69
2021/04/10 01:51:28;;;;;;;3.67;3.00;;;5.40;48.20;;;;;;5056745;28;20697;-69
2021/04/10 01:53:56;;;;;;;7.63;2.75;;;5.40;48.00;;;;;;5060563;28;20210;-69
2021/04/10 01:56:24;;;;;;;4.15;2.95;;;5.40;48.20;;;;;;5072910;28;20198;-69
2021/04/10 01:58:51;;;;;;;3.70;2.40;;;5.30;48.00;;;;;;5064745;28;20202;-69
2021/04/10 02:01:22;;;;;;;12.45;3.50;;;5.30;48.20;;;;;;5064523;28;20189;-69
2021/04/10 02:03:49;;;;;;;4.93;2.30;;;5.30;48.10;;;;;;5072814;28;20276;-69
2021/04/10 02:06:17;;;;;;;4.40;2.75;;;5.40;47.80;;;;;;5066342;28;20657;-69
2021/04/10 02:08:45;;;;;;;5.95;3.03;;;5.40;47.60;;;;;;5052514;28;20213;-69
2021/04/10 02:11:14;;;;;;;4.25;3.05;;;5.40;47.80;;;;;;5061555;28;20614;-70
2021/04/10 02:13:43;;;;;;;5.30;3.42;;;5.40;48.00;;;;;;5054604;28;20221;-70
2021/04/10 02:16:10;;;;;;;6.43;3.13;;;5.40;47.70;;;;;;5052459;28;20187;-69
2021/04/10 02:18:39;;;;;;;3.80;2.78;;;5.40;47.70;;;;;;5061970;28;20239;-69
2021/04/10 02:21:08;;;;;;;4.80;3.10;;;5.40;47.90;;;;;;5060585;28;20190;-69
2021/04/10 02:23:38;;;;;;;5.15;3.10;;;5.40;47.90;;;;;;5052258;28;20194;-69
2021/04/10 02:26:05;;;;;;;8.23;3.90;;;5.40;47.90;;;;;;5062111;28;20218;-69
2021/04/10 02:28:31;;;;;;;4.25;3.10;;;5.40;48.20;;;;;;5072055;28;20636;-69
2021/04/10 02:31:00;;;;;;;5.97;3.58;;;5.30;48.40;;;;;;5061986;28;20197;-69
2021/04/10 02:33:31;;;;;;;7.22;3.78;;;5.30;48.90;;;;;;5052284;28;20746;-69
2021/04/10 02:36:00;;;;;;;5.72;3.63;;;5.30;48.50;;;;;;5061429;28;20599;-69
2021/04/10 02:38:30;;;;;;;4.50;3.40;;;5.30;48.80;;;;;;5072218;28;20202;-69
2021/04/10 02:41:04;;;;;;;7.68;4.00;;;5.30;48.60;;;;;;5062478;28;20194;-69
2021/04/10 02:43:34;;;;;;;5.50;2.83;;;5.20;48.80;;;;;;5052266;28;20193;-70
2021/04/10 02:46:03;;;;;;;8.73;3.10;;;5.20;49.10;;;;;;5061302;28;20591;-69
2021/04/10 02:48:35;;;;;;;4.95;3.28;;;5.20;49.10;;;;;;5072424;28;20193;-69
2021/04/10 02:51:05;;;;;;;7.10;2.72;;;5.20;49.20;;;;;;5061919;28;20205;-69
2021/04/10 02:53:36;;;;;;;4.30;2.60;;;5.20;49.50;;;;;;5051990;28;20218;-69
2021/04/10 02:56:04;;;;;;;5.70;2.53;;;5.20;49.20;;;;;;5061039;28;20224;-69
2021/04/10 02:58:32;;;;;;;5.50;3.30;;;5.30;49.20;;;;;;5072169;28;20190;-69
2021/04/10 03:00:59;;;;;;;6.43;4.22;;;5.30;49.30;;;;;;5062323;28;20186;-69
2021/04/10 03:03:27;;;;;;;5.43;3.15;;;5.40;49.50;;;;;;5051977;28;20198;-69
2021/04/10 03:05:55;;;;;;;4.63;3.15;;;5.40;49.30;;;;;;5059307;28;20225;-69
2021/04/10 03:08:24;;;;;;;4.25;3.00;;;5.40;48.80;;;;;;5071855;28;20193;-69
2021/04/10 03:10:53;;;;;;;4.00;2.88;;;5.40;49.00;;;;;;5063497;28;20226;-69
2021/04/10 03:13:22;;;;;;;5.32;3.17;;;5.30;49.10;;;;;;5051544;28;20222;-69
2021/04/10 03:15:52;;;;;;;5.05;3.25;;;5.20;49.40;;;;;;5058859;28;20189;-69
2021/04/10 03:18:20;;;;;;;5.00;3.35;;;5.20;49.60;;;;;;5073826;28;20277;-69
2021/04/10 03:20:47;;;;;;;5.40;3.20;;;5.10;49.90;;;;;;5067901;28;20194;-69
2021/04/10 03:23:14;;;;;;;4.93;3.50;;;5.00;50.20;;;;;;5055498;28;20191;-69
2021/04/10 03:25:42;;;;;;;5.03;3.50;;;5.10;50.00;;;;;;5061279;28;20543;-69
2021/04/10 03:28:11;;;;;;;7.85;4.22;;;5.10;50.10;;;;;;5075457;28;20193;-69
2021/04/10 03:30:38;;;;;;;6.05;4.07;;;5.20;50.20;;;;;;5069248;28;20269;-70
2021/04/10 03:33:06;;;;;;;6.65;4.57;;;5.20;50.50;;;;;;5055325;28;20228;-69
2021/04/10 03:35:33;;;;;;;7.20;4.22;;;5.20;50.90;;;;;;5059664;28;20193;-69
2021/04/10 03:38:01;;;;;;;8.65;5.93;;;5.20;50.60;;;;;;5075547;28;20209;-69
2021/04/10 03:40:28;;;;;;;5.55;3.83;;;5.30;51.00;;;;;;5070570;28;20195;-69
2021/04/10 03:42:56;;;;;;;4.57;3.03;;;5.40;51.20;;;;;;5055312;28;20645;-69
2021/04/10 03:45:23;;;;;;;5.95;3.30;;;5.40;50.90;;;;;;5057706;28;20190;-70
2021/04/10 03:47:52;;;;;;;6.25;3.95;;;5.50;50.90;;;;;;5074882;28;20181;-69
2021/04/10 03:50:19;;;;;;;10.80;5.75;;;5.50;50.40;;;;;;5072083;28;20190;-69
2021/04/10 03:52:45;;;;;;;5.88;3.15;;;5.60;50.40;;;;;;5055030;28;20681;-70
2021/04/10 03:55:13;;;;;;;6.00;3.58;;;5.60;50.50;;;;;;5055995;28;20201;-69
2021/04/10 03:57:40;;;;;;;5.03;3.40;;;5.60;50.30;;;;;;5075080;28;20189;-70
2021/04/10 04:00:09;;;;;;;6.28;3.35;;;5.60;50.70;;;;;;5073495;28;20678;-70
2021/04/10 04:02:37;;;;;;;9.38;4.78;;;5.60;50.80;;;;;;5061369;28;20559;-70
2021/04/10 04:05:05;;;;;;;7.63;3.17;;;5.50;51.10;;;;;;5074756;28;20673;-70
2021/04/10 04:07:32;;;;;;;7.20;3.10;;;5.50;51.00;;;;;;5035034;28;20227;-69
2021/04/10 04:09:58;;;;;;;7.05;4.28;;;5.60;51.00;;;;;;5034985;28;20205;-69
2021/04/10 04:12:25;;;;;;;7.03;3.60;;;5.50;51.00;;;;;;5073179;28;20223;-69
2021/04/10 04:14:51;;;;;;;6.18;3.03;;;5.50;51.30;;;;;;5074892;28;20656;-69
2021/04/10 04:17:19;;;;;;;5.40;2.97;;;5.50;51.50;;;;;;5056208;28;20592;-69
2021/04/10 04:19:46;;;;;;;7.20;2.90;;;5.60;51.30;;;;;;5054675;28;20563;-69
2021/04/10 04:22:13;;;;;;;4.93;4.38;;;5.60;51.20;;;;;;5071729;28;20239;-69
2021/04/10 04:24:39;;;;;;;6.18;4.15;;;5.60;51.40;;;;;;5074782;28;20556;-69
2021/04/10 04:27:07;;;;;;;7.00;3.38;;;5.70;51.70;;;;;;5058654;28;20244;-70
2021/04/10 04:29:33;;;;;;;8.52;4.05;;;5.70;51.50;;;;;;5054581;28;20649;-69
2021/04/10 04:32:00;;;;;;;6.60;3.47;;;5.80;51.50;;;;;;5069653;28;20561;-69
2021/04/10 04:34:28;;;;;;;5.47;3.75;;;5.80;51.30;;;;;;5074544;28;20329;-69
2021/04/10 04:36:55;;;;;;;7.72;4.15;;;5.80;51.20;;;;;;5060165;28;20191;-69
2021/04/10 04:39:22;;;;;;;5.28;3.55;;;5.90;51.40;;;;;;5054176;28;20259;-69
2021/04/10 04:41:49;;;;;;;5.88;3.90;;;5.80;51.80;;;;;;5067482;28;20186;-70
2021/04/10 04:44:16;;;;;;;6.53;3.60;;;5.80;51.60;;;;;;5074073;28;20201;-70
2021/04/10 04:46:42;;;;;;;6.45;3.35;;;5.80;51.60;;;;;;5061867;28;20214;-70
2021/04/10 04:49:09;;;;;;;7.80;3.75;;;5.70;52.00;;;;;;5054341;28;20233;-69
2021/04/10 04:51:37;;;;;;;7.78;3.67;;;5.70;52.50;;;;;;5065171;28;20189;-69
2021/04/10 04:54:04;;;;;;;5.63;3.72;;;5.80;52.50;;;;;;5074179;28;20214;-69
2021/04/10 04:56:30;;;;;;;7.85;4.00;;;5.80;52.70;;;;;;5063621;28;20278;-70
2021/04/10 04:58:57;;;;;;;7.50;4.57;;;5.80;52.60;;;;;;5054102;28;20194;-69
2021/04/10 05:01:24;;;;;;;10.18;4.20;;;5.80;52.30;;;;;;5054703;28;20183;-69
2021/04/10 05:03:50;;;;;;;8.25;4.65;;;5.90;52.60;;;;;;5059428;28;20186;-69
2021/04/10 05:06:17;;;;;;;9.18;5.22;;;5.90;52.90;;;;;;5073775;28;20715;-69
2021/04/10 05:08:45;;;;;;;9.07;4.97;;;5.90;52.70;;;;;;5068944;28;20186;-69
2021/04/10 05:11:11;;;;;;;7.93;4.50;;;5.90;52.60;;;;;;5054649;28;20214;-69
2021/04/10 05:13:38;;;;;;;13.48;5.07;;;5.90;52.70;;;;;;5066975;28;20236;-70
2021/04/10 05:16:06;;;;;;;8.95;3.97;;;6.00;52.70;;;;;;5073625;28;20193;-70
2021/04/10 05:18:32;;;;;;;7.45;4.72;;;6.10;52.90;;;;;;5061236;28;20229;-69
2021/04/10 05:20:59;;;;;;;12.55;4.05;;;6.10;53.70;;;;;;5063913;28;20236;-70
2021/04/10 05:23:26;;;;;;;6.50;3.78;;;6.20;53.60;;;;;;5073484;28;20209;-70
2021/04/10 05:25:54;;;;;;;12.02;4.80;;;6.30;52.90;;;;;;5064772;28;20190;-69
2021/04/10 05:28:21;;;;;;;8.73;4.38;;;6.30;52.50;;;;;;5053716;28;20241;-70
2021/04/10 05:30:48;;;;;;;7.65;3.65;;;6.40;52.10;;;;;;5061573;28;20586;-70
2021/04/10 05:33:14;;;;;;;5.78;4.22;;;6.40;51.90;;;;;;5073284;28;20221;-70
2021/04/10 05:35:41;;;;;;;5.63;3.65;;;6.50;52.00;;;;;;5071584;28;20636;-70
2021/04/10 05:38:08;;;;;;;10.50;3.95;;;6.60;51.70;;;;;;5073219;28;20197;-69
2021/04/10 05:40:34;;;;;;;6.85;3.78;;;6.70;51.40;;;;;;5066114;28;20187;-69
2021/04/10 05:43:02;;;;;;;6.72;3.67;;;6.80;51.20;;;;;;5053544;28;20581;-70
2021/04/10 05:45:29;;;;;;;6.70;4.88;;;6.80;52.20;;;;;;5058098;28;20194;-70
2021/04/10 05:47:56;;;;;;;6.80;3.70;;;6.90;52.80;;;;;;5073111;28;20648;-69
2021/04/10 05:50:22;;;;;;;5.50;4.07;;;7.00;53.10;;;;;;5068120;28;20324;-70
2021/04/10 05:52:49;;;;;;;7.15;4.20;;;7.10;52.70;;;;;;5052981;28;20190;-70
2021/04/10 05:55:16;;;;;;;6.32;3.75;;;7.30;52.40;;;;;;5055756;28;20255;-70
2021/04/10 05:57:42;;;;;;;6.47;4.15;;;7.40;51.70;;;;;;5072802;28;20280;-70
2021/04/10 06:00:12;;;;;;;6.18;4.60;;;7.50;51.20;;;;;;5070213;28;20240;-69
2021/04/10 06:02:39;;;;;;;8.13;4.65;;;7.60;50.70;;;;;;5052991;28;20225;-70
2021/04/10 06:05:07;;;;;;;8.60;5.38;;;7.80;50.80;;;;;;5053660;28;20285;-69
2021/04/10 06:07:34;;;;;;;12.93;5.32;;;7.90;50.80;;;;;;5032875;28;20654;-70
2021/04/10 06:10:01;;;;;;;17.52;11.23;;;8.00;50.80;;;;;;5034838;28;20202;-70
2021/04/10 06:12:29;;;;;;;20.58;9.55;;;8.10;50.20;;;;;;5072954;28;20621;-70
2021/04/10 06:14:55;;;;;;;10.18;7.00;;;8.20;50.00;;;;;;5072591;28;20632;-70
2021/04/10 06:17:23;;;;;;;9.95;6.60;;;8.40;50.00;;;;;;5053398;28;20283;-70
2021/04/10 06:19:50;;;;;;;13.60;8.00;;;8.60;49.90;;;;;;5045092;28;20190;-70
2021/04/10 06:22:17;;;;;;;12.13;7.47;;;8.70;50.10;;;;;;5053707;28;20194;-69
2021/04/10 06:24:50;;;;;;;8.15;5.28;;;8.90;49.20;;;;;;5050953;28;20194;-70
2021/04/10 06:27:22;;;;;;;8.85;4.10;;;9.10;48.90;;;;;;5050891;28;20552;-70
2021/04/10 06:29:49;;;;;;;8.52;5.88;;;9.30;48.60;;;;;;5051069;28;20190;-70
2021/04/10 06:32:18;;;;;;;10.80;4.88;;;9.50;48.50;;;;;;5052181;28;20194;-70
2021/04/10 06:34:46;;;;;;;5.93;4.05;;;9.80;48.70;;;;;;5050899;28;20691;-70
2021/04/10 06:37:13;;;;;;;5.55;4.15;;;10.00;48.60;;;;;;5050726;28;20208;-70
2021/04/10 06:39:39;;;;;;;5.55;3.30;;;10.20;48.30;;;;;;5051828;28;20186;-69
2021/04/10 06:42:07;;;;;;;5.03;3.15;;;10.50;47.50;;;;;;5054931;28;20194;-70
2021/04/10 06:44:34;;;;;;;8.07;3.30;;;10.70;45.10;;;;;;5050986;28;20191;-70
2021/04/10 06:47:03;;;;;;;8.07;2.90;;;11.00;44.40;;;;;;5050893;28;20198;-70
2021/04/10 06:49:31;;;;;;;5.10;3.05;;;11.20;43.00;;;;;;5050324;28;20281;-70
2021/04/10 06:52:00;;;;;;;4.63;3.40;;;11.40;43.00;;;;;;5043740;28;20190;-71
2021/04/10 06:54:37;;;;;;;7.93;3.42;;;11.70;41.00;;;;;;5050177;28;20273;-71
2021/04/10 06:57:28;;;;;;;5.25;2.90;;;11.80;40.90;;;;;;5053523;28;20197;-73
2021/04/10 07:00:05;;;;;;;4.93;3.47;;;12.00;41.50;;;;;;5051391;28;20288;-74
2021/04/10 07:02:51;;;;;;;9.13;3.33;;;12.30;41.40;;;;;;5053765;28;20201;-73
2021/04/10 07:05:20;;;;;;;8.02;3.30;;;12.50;40.30;;;;;;5052816;28;20817;-69
2021/04/10 07:07:49;;;;;;;4.30;3.10;;;12.70;40.20;;;;;;5050388;28;20217;-71
2021/04/10 07:10:16;;;;;;;3.95;3.10;;;12.90;41.60;;;;;;5048516;28;20692;-70
2021/04/10 07:12:43;;;;;;;7.15;2.95;;;13.10;41.40;;;;;;5047286;28;20568;-71
2021/04/10 07:15:13;;;;;;;4.15;2.50;;;13.40;41.00;;;;;;5051240;28;20186;-71
2021/04/10 07:17:40;;;;;;;5.10;3.08;;;13.70;38.60;;;;;;5046782;28;20202;-70
2021/04/10 07:20:25;;;;;;;5.50;2.70;;;14.00;38.00;;;;;;5052410;28;20187;-70
2021/04/10 07:23:01;;;;;;;4.25;2.50;;;14.50;36.80;;;;;;5056256;28;20205;-71
2021/04/10 07:25:29;;;;;;;3.40;2.17;;;15.10;36.70;;;;;;5052967;28;20201;-70
2021/04/10 07:27:56;;;;;;;3.17;2.20;;;15.60;35.90;;;;;;5053794;28;20190;-70
2021/04/10 07:30:24;;;;;;;5.22;2.65;;;15.90;34.00;;;;;;5049708;28;20241;-71
2021/04/10 07:32:50;;;;;;;5.03;2.90;;;16.10;31.70;;;;;;5054684;28;20186;-69
2021/04/10 07:35:18;;;;;;;5.00;3.65;;;16.20;31.40;;;;;;5053967;28;20194;-71
2021/04/10 07:37:48;;;;;;;5.60;2.97;;;16.30;32.20;;;;;;5050509;28;20196;-69
2021/04/10 07:40:24;;;;;;;5.23;2.70;;;16.60;33.80;;;;;;5047390;28;20868;-70
2021/04/10 07:42:53;;;;;;;3.10;2.10;;;17.20;35.60;;;;;;5052329;28;20462;-70
2021/04/10 07:45:49;;;;;;;4.03;2.37;;;18.40;35.30;;;;;;5052070;28;20452;-71
2021/04/10 07:48:19;;;;;;;3.03;1.73;;;21.00;32.80;;;;;;5055498;28;20539;-71
2021/04/10 07:50:48;;;;;;;5.60;2.30;;;23.20;29.00;;;;;;5052966;28;20440;-70
2021/04/10 07:53:29;;;;;;;4.37;2.60;;;25.10;28.30;;;;;;5053390;28;20500;-71
2021/04/10 07:56:02;;;;;;;6.17;2.67;;;27.00;26.10;;;;;;5050947;28;20440;-70
2021/04/10 07:58:31;;;;;;;4.87;2.00;;;28.70;23.70;;;;;;5057340;28;20742;-70
2021/04/10 08:01:09;;;;;;;5.63;2.10;;;30.00;21.20;;;;;;5053053;28;20819;-73
2021/04/10 08:03:39;;;;;;;7.20;3.70;;;31.10;19.60;;;;;;5052251;28;20927;-70
2021/04/10 08:06:16;;;;;;;4.77;2.17;;;32.30;18.20;;;;;;5052954;28;20432;-70
2021/04/10 08:08:48;;;;;;;4.80;2.37;;;33.30;16.00;;;;;;5054063;28;20934;-71
2021/04/10 08:11:15;;;;;;;4.63;1.87;;;34.00;15.70;;;;;;5053430;28;20440;-71
2021/04/10 08:13:54;;;;;;;5.47;2.33;;;34.00;13.50;;;;;;5053879;28;20533;-70
2021/04/10 08:16:21;;;;;;;4.83;2.17;;;32.40;13.00;;;;;;5054009;28;20479;-70
2021/04/10 08:18:49;;;;;;;5.00;1.90;;;30.80;14.00;;;;;;5049353;28;20540;-71
2021/04/10 08:21:17;;;;;;;4.00;2.33;;;29.30;14.10;;;;;;5054383;28;20571;-69
2021/04/10 08:23:44;;;;;;;9.93;2.27;;;28.00;15.70;;;;;;5053473;28;20821;-69
2021/04/10 08:26:12;;;;;;;5.00;1.93;;;26.90;16.40;;;;;;5053269;28;20445;-69
2021/04/10 08:28:40;;;;;;;4.63;2.00;;;25.60;16.50;;;;;;5049240;28;20425;-69
2021/04/10 08:31:07;;;;;;;3.43;1.90;;;24.50;17.70;;;;;;5057505;28;21016;-69
2021/04/10 08:33:34;;;;;;;7.70;2.67;;;23.50;18.50;;;;;;5049066;28;20794;-69
2021/04/10 08:36:04;;;;;;;5.10;2.17;;;22.70;19.80;;;;;;5049212;28;20494;-69
2021/04/10 08:38:32;;;;;;;5.67;2.13;;;22.10;20.60;;;;;;5052727;28;20444;-69
2021/04/10 08:41:02;;;;;;;4.10;2.20;;;21.80;21.30;;;;;;5052798;28;20444;-68
2021/04/10 08:43:31;;;;;;;4.20;3.00;;;21.70;22.50;;;;;;5055209;28;21081;-69
2021/04/10 08:45:59;;;;;;;6.00;2.37;;;22.10;22.10;;;;;;5052420;28;20495;-69
2021/04/10 08:48:44;;;;;;;5.50;2.70;;;22.00;21.20;;;;;;5053058;28;20437;-68
2021/04/10 08:51:11;;;;;;;5.13;2.17;;;21.70;22.10;;;;;;5047818;28;20448;-69
2021/04/10 08:53:42;;;;;;;7.70;2.70;;;21.50;21.60;;;;;;5052497;28;20843;-69
2021/04/10 08:56:09;;;;;;;3.93;2.50;;;22.00;22.30;;;;;;5052789;28;20490;-69
2021/04/10 08:58:39;;;;;;;7.67;3.50;;;23.60;25.00;;;;;;5052034;28;20441;-69
2021/04/10 09:01:09;;;;;;;5.47;2.53;;;26.00;20.30;;;;;;5053209;28;20440;-69
2021/04/10 09:03:52;;;;;;;6.63;2.80;;;26.10;17.40;;;;;;5052559;28;20839;-69
2021/04/10 09:06:57;;;;;;;6.30;2.67;;;25.40;17.50;;;;;;5052587;28;20460;-69
2021/04/10 09:09:31;;;;;;;5.30;2.60;;;25.40;20.30;;;;;;5026043;28;20448;-69
2021/04/10 09:12:22;;;;;;;6.93;2.77;;;28.00;20.20;;;;;;5055909;28;20433;-69
2021/04/10 09:14:50;;;;;;;5.73;2.80;;;30.40;17.00;;;;;;5047886;28;20456;-69
2021/04/10 09:17:17;;;;;;;3.30;2.50;;;31.10;14.90;;;;;;5052425;28;20441;-69
2021/04/10 09:19:45;;;;;;;4.60;2.27;;;30.90;15.60;;;;;;5052079;28;20923;-69
2021/04/10 09:22:20;;;;;;;4.00;2.33;;;31.60;16.50;;;;;;5051832;28;20479;-70
2021/04/10 09:24:49;;;;;;;5.43;2.53;;;32.80;15.00;;;;;;5051821;28;20484;-69
2021/04/10 09:27:20;;;;;;;3.80;2.60;;;32.70;13.60;;;;;;5052146;28;20437;-70
2021/04/10 09:29:50;;;;;;;5.10;2.70;;;32.30;12.90;;;;;;5051389;28;20448;-70
2021/04/10 09:32:38;;;;;;;5.00;2.57;;;33.00;14.00;;;;;;5051872;28;20437;-69
2021/04/10 09:35:07;;;;;;;5.97;2.27;;;34.30;14.20;;;;;;5054349;28;20491;-70
2021/04/10 09:37:47;;;;;;;5.57;2.10;;;35.60;12.90;;;;;;5052042;28;20492;-70
2021/04/10 09:40:18;;;;;;;6.30;2.33;;;37.10;11.50;;;;;;5042929;28;20745;-70
2021/04/10 09:42:47;;;;;;;4.03;2.50;;;38.40;11.30;;;;;;5051618;28;20471;-70
2021/04/10 09:45:16;;;;;;;5.93;2.80;;;39.20;9.80;;;;;;5054621;28;20473;-70
2021/04/10 09:48:20;;;;;;;4.77;2.57;;;39.70;10.10;;;;;;5051608;28;20433;-70
2021/04/10 09:51:12;;;;;;;4.43;2.33;;;39.90;9.40;;;;;;5049343;28;20448;-70
2021/04/10 09:53:39;;;;;;;3.80;2.17;;;39.80;9.20;;;;;;5048375;28;20486;-71
2021/04/10 09:56:16;;;;;;;10.60;2.60;;;39.00;8.40;;;;;;5052415;28;20441;-71
2021/04/10 09:58:50;;;;;;;3.30;2.50;;;38.40;8.30;;;;;;5051718;28;20491;-71
2021/04/10 10:01:19;;;;;;;3.53;2.60;;;37.60;8.00;;;;;;5049321;28;20911;-70
2021/04/10 10:03:49;;;;;;;5.57;3.07;;;36.90;8.50;;;;;;5051335;28;20941;-70
2021/04/10 10:06:39;;;;;;;4.00;2.70;;;35.90;7.70;;;;;;5053522;28;20522;-70
2021/04/10 10:09:29;;;;;;;4.23;2.13;;;34.80;9.00;;;;;;5041811;28;21049;-70
2021/04/10 10:11:57;;;;;;;3.00;2.10;;;34.60;9.30;;;;;;5045619;28;20465;-70
2021/04/10 10:14:24;;;;;;;4.83;2.23;;;34.40;9.30;;;;;;5051052;28;20942;-70
2021/04/10 10:16:53;;;;;;;4.30;2.90;;;33.90;9.80;;;;;;5049916;28;20906;-70
2021/04/10 10:19:21;;;;;;;3.40;2.40;;;33.60;10.60;;;;;;5052196;28;20456;-70
2021/04/10 10:21:47;;;;;;;5.77;2.80;;;33.10;10.60;;;;;;5051762;28;20432;-70
2021/04/10 10:24:26;;;;;;;4.93;2.40;;;32.90;11.60;;;;;;5051844;28;20487;-69
2021/04/10 10:26:53;;;;;;;4.07;2.30;;;32.90;12.20;;;;;;5052837;28;20456;-70
2021/04/10 10:29:20;;;;;;;5.77;2.23;;;33.00;12.60;;;;;;5050378;28;20468;-69
2021/04/10 10:31:50;;;;;;;3.73;2.63;;;33.00;12.20;;;;;;5051390;28;20464;-70
2021/04/10 10:34:26;;;;;;;7.10;3.00;;;32.80;10.20;;;;;;5050857;28;20444;-70
2021/04/10 10:36:53;;;;;;;4.50;2.03;;;32.40;10.80;;;;;;5051043;28;20467;-70
2021/04/10 10:39:26;;;;;;;4.67;2.53;;;32.30;11.80;;;;;;5051302;28;20469;-70
2021/04/10 10:41:52;;;;;;;4.17;2.40;;;32.40;12.70;;;;;;5051263;28;20440;-70
2021/04/10 10:44:19;;;;;;;5.60;2.30;;;32.50;13.10;;;;;;5050953;28;20492;-70
2021/04/10 10:46:46;;;;;;;5.83;2.30;;;32.60;12.50;;;;;;5051354;28;20483;-70
2021/04/10 10:49:13;;;;;;;5.57;2.33;;;32.60;11.70;;;;;;5049091;28;21007;-70
2021/04/10 10:51:42;;;;;;;5.03;2.23;;;32.10;11.40;;;;;;5050598;28;20485;-70
2021/04/10 10:54:09;;;;;;;4.13;2.43;;;31.90;12.30;;;;;;5053401;28;20479;-69
2021/04/10 10:56:37;;;;;;;4.10;2.60;;;31.80;12.40;;;;;;5046440;28;20547;-69
2021/04/10 10:59:05;;;;;;;6.03;2.50;;;31.70;12.30;;;;;;5052471;28;20928;-70
2021/04/10 11:01:34;;;;;;;4.97;2.27;;;31.60;11.90;;;;;;5051229;28;20446;-69
2021/04/10 11:04:03;;;;;;;2.90;1.80;;;31.30;11.60;;;;;;5049372;28;20534;-69
2021/04/10 11:06:32;;;;;;;5.13;2.30;;;31.10;12.80;;;;;;5051165;28;21066;-69
2021/04/10 11:09:01;;;;;;;3.43;1.97;;;31.10;13.10;;;;;;5049010;28;20801;-70
2021/04/10 11:11:31;;;;;;;4.60;2.27;;;31.10;13.60;;;;;;5049367;28;20483;-69
2021/04/10 11:13:58;;;;;;;6.07;2.27;;;30.90;13.00;;;;;;5049993;28;20468;-70
2021/04/10 11:16:25;;;;;;;5.37;2.07;;;30.50;13.70;;;;;;5052969;28;20981;-69
2021/04/10 11:18:56;;;;;;;3.90;2.63;;;30.10;13.40;;;;;;5051862;28;20454;-70
2021/04/10 11:21:26;;;;;;;5.70;2.00;;;29.60;13.90;;;;;;5046224;28;20461;-68
2021/04/10 11:24:10;;;;;;;5.00;2.20;;;29.30;15.00;;;;;;5055383;28;20492;-69
2021/04/10 11:26:44;;;;;;;5.57;2.47;;;29.20;15.10;;;;;;5055736;28;20459;-69
2021/04/10 11:29:15;;;;;;;3.63;2.37;;;29.10;14.90;;;;;;5053405;28;20452;-71
2021/04/10 11:31:42;;;;;;;3.77;2.30;;;28.80;14.50;;;;;;5056793;28;20440;-70
2021/04/10 11:34:28;;;;;;;4.40;2.10;;;28.50;14.70;;;;;;5054701;28;20848;-70
2021/04/10 11:36:55;;;;;;;5.97;2.30;;;28.10;15.20;;;;;;5054260;28;20430;-71
2021/04/10 11:39:23;;;;;;;3.87;2.07;;;28.00;15.60;;;;;;5052935;28;20533;-71
2021/04/10 11:41:50;;;;;;;5.43;2.03;;;27.90;17.20;;;;;;5055146;28;20440;-72
2021/04/10 11:44:18;;;;;;;4.10;1.97;;;27.90;15.80;;;;;;5048590;28;20492;-72
2021/04/10 11:46:45;;;;;;;4.63;2.33;;;27.80;15.90;;;;;;5056464;28;20443;-71
2021/04/10 11:49:23;;;;;;;6.17;2.07;;;27.50;16.40;;;;;;5056915;28;20446;-71
2021/04/10 11:51:51;;;;;;;5.07;2.03;;;27.40;16.00;;;;;;5049001;28;20532;-72
2021/04/10 11:54:31;;;;;;;7.90;3.17;;;27.20;17.10;;;;;;5050317;28;20522;-71
2021/04/10 11:56:58;;;;;;;5.33;2.80;;;27.10;17.10;;;;;;5058361;28;20444;-71
2021/04/10 11:59:32;;;;;;;12.33;2.40;;;27.00;17.30;;;;;;5060020;28;20487;-71
2021/04/10 12:02:01;;;;;;;3.30;2.10;;;26.90;17.20;;;;;;5057825;28;20528;-71
2021/04/10 12:04:29;;;;;;;4.43;1.87;;;26.70;16.90;;;;;;5056029;28;20485;-70
2021/04/10 12:07:06;;;;;;;3.77;1.97;;;26.40;16.60;;;;;;5054797;28;20859;-71
2021/04/10 12:09:37;;;;;;;4.20;2.40;;;26.30;18.00;;;;;;5057452;28;20444;-71
2021/04/10 12:12:05;;;;;;;5.90;2.00;;;26.00;17.90;;;;;;5056421;28;20471;-71
2021/04/10 12:14:32;;;;;;;6.97;2.53;;;26.00;17.70;;;;;;5055822;28;20474;-71
2021/04/10 12:16:59;;;;;;;2.67;1.70;;;25.60;17.40;;;;;;5057783;28;20495;-71
2021/04/10 12:19:26;;;;;;;4.97;2.70;;;25.40;18.30;;;;;;5057696;28;20440;-71
2021/04/10 12:21:53;;;;;;;4.67;2.37;;;25.30;19.40;;;;;;5056673;28;20765;-71
2021/04/10 12:24:20;;;;;;;6.93;2.00;;;25.20;18.20;;;;;;5054675;28;20487;-71
2021/04/10 12:26:48;;;;;;;4.43;2.10;;;25.00;18.80;;;;;;5057051;28;20448;-71
2021/04/10 12:29:15;;;;;;;4.13;1.80;;;24.80;18.70;;;;;;5056582;28;20440;-71
2021/04/10 12:31:43;;;;;;;4.47;2.37;;;24.70;19.40;;;;;;5055820;28;20452;-71
2021/04/10 12:34:09;;;;;;;3.80;2.23;;;24.80;19.60;;;;;;5057623;28;20491;-71
2021/04/10 12:36:36;;;;;;;4.23;2.03;;;24.80;19.30;;;;;;5058456;28;20456;-71
2021/04/10 12:39:03;;;;;;;6.83;2.57;;;24.60;18.80;;;;;;5059492;28;20442;-71
2021/04/10 12:41:30;;;;;;;3.97;2.20;;;24.40;19.00;;;;;;5056598;28;20816;-71
2021/04/10 12:43:58;;;;;;;4.47;1.80;;;24.30;20.30;;;;;;5057450;28;21073;-73
2021/04/10 12:46:25;;;;;;;3.43;1.83;;;24.10;20.50;;;;;;5057602;28;20971;-72
2021/04/10 12:48:52;;;;;;;4.90;1.70;;;24.10;19.70;;;;;;5057504;28;20436;-72
2021/04/10 12:51:19;;;;;;;5.30;2.80;;;24.00;20.00;;;;;;5052961;28;20437;-72
2021/04/10 12:53:46;;;;;;;4.40;2.43;;;24.10;19.20;;;;;;5055449;28;20471;-73
2021/04/10 12:56:16;;;;;;;5.17;2.20;;;24.20;19.70;;;;;;5056522;28;20447;-72
2021/04/10 12:58:43;;;;;;;4.57;1.90;;;24.20;19.40;;;;;;5055060;28;20476;-73
2021/04/10 13:01:10;;;;;;;7.53;3.00;;;24.10;20.40;;;;;;5057778;28;20539;-72
2021/04/10 13:03:37;;;;;;;4.77;2.10;;;24.00;20.50;;;;;;5058770;28;20440;-72
2021/04/10 13:06:03;;;;;;;12.47;2.13;;;23.80;20.90;;;;;;5056214;28;20445;-72